WUK7863 EGGW-LEZL
Flight info
| Callsign | WUK7863 |
|---|---|
| Flight time | N/A |
| Altitude | 35000 |
| Route | RODNI N27 ICTAM Q63 CPT Y321 PEPIS Q41 SAM M195 MARUK N621 LELNA DCT NOVAN DCT DELOG DCT VADOX DCT SNR DCT TITAN DCT RATAS DCT NEA DCT NONTU DCT ORBIS DCT DISKO DCT TLD DCT DOPEN DCT MONTO DCT MOLIN DCT HIJ |
| Aircraft | A21N/M-SDE3FGHIRWY/LB1 |
Departure
| Time | 2026-04-30 20:28 |
|---|---|
| Airport | London Luton Airport (EGGW) |
Arrival
| Time | N/A |
|---|---|
| Airport | Seville Airport (LEZL) |
| Time | Latitude | Longitude | Altitude | Speed | Heading |
|---|---|---|---|---|---|
| 2026-04-30 20:27 | 51.88470 | -0.30888 | 2376 ft | 150 kts | 76° |
| 2026-04-30 20:28 | 51.89065 | -0.27627 | 3015 ft | 177 kts | 76° |
| 2026-04-30 20:28 | 51.87489 | -0.23098 | 3809 ft | 226 kts | 165° |
| 2026-04-30 20:29 | 51.83400 | -0.29723 | 4220 ft | 275 kts | 253° |
| 2026-04-30 20:30 | 51.81442 | -0.43278 | 4213 ft | 272 kts | 252° |
| 2026-04-30 20:30 | 51.78701 | -0.61304 | 5212 ft | 276 kts | 253° |
| 2026-04-30 20:31 | 51.75746 | -0.79088 | 5204 ft | 268 kts | 235° |
| 2026-04-30 20:32 | 51.68042 | -0.91812 | 6761 ft | 268 kts | 220° |
| 2026-04-30 20:32 | 51.62710 | -1.00370 | 9523 ft | 278 kts | 221° |
| 2026-04-30 20:33 | 51.59971 | -1.04751 | 10738 ft | 286 kts | 221° |
| 2026-04-30 20:33 | 51.53904 | -1.14439 | 12506 ft | 320 kts | 221° |
| 2026-04-30 20:33 | 51.50742 | -1.19436 | 13663 ft | 325 kts | 218° |
| 2026-04-30 20:34 | 51.42292 | -1.22616 | 15832 ft | 323 kts | 179° |
| 2026-04-30 20:34 | 51.33248 | -1.23263 | 17929 ft | 333 kts | 180° |
| 2026-04-30 20:35 | 51.28585 | -1.23642 | 18900 ft | 338 kts | 181° |
| 2026-04-30 20:35 | 51.23850 | -1.24026 | 19827 ft | 344 kts | 181° |
| 2026-04-30 20:35 | 51.14354 | -1.26576 | 21497 ft | 355 kts | 192° |
| 2026-04-30 20:36 | 51.09550 | -1.28617 | 22250 ft | 359 kts | 192° |
| 2026-04-30 20:36 | 51.04767 | -1.30626 | 23015 ft | 363 kts | 191° |
| 2026-04-30 20:36 | 50.95008 | -1.35367 | 24483 ft | 375 kts | 201° |
| 2026-04-30 20:37 | 50.90492 | -1.39648 | 25170 ft | 382 kts | 209° |
| 2026-04-30 20:37 | 50.86177 | -1.44178 | 25789 ft | 387 kts | 209° |
| 2026-04-30 20:37 | 50.81690 | -1.48863 | 26417 ft | 392 kts | 209° |
| 2026-04-30 20:37 | 50.77087 | -1.53639 | 27019 ft | 396 kts | 210° |
| 2026-04-30 20:38 | 50.72527 | -1.58354 | 27546 ft | 401 kts | 210° |
| 2026-04-30 20:38 | 50.67836 | -1.63193 | 28056 ft | 405 kts | 210° |
| 2026-04-30 20:38 | 50.63078 | -1.68087 | 28565 ft | 410 kts | 210° |
| 2026-04-30 20:39 | 50.53487 | -1.77919 | 29555 ft | 419 kts | 210° |
| 2026-04-30 20:39 | 50.48626 | -1.82881 | 30046 ft | 423 kts | 210° |
| 2026-04-30 20:39 | 50.43718 | -1.87879 | 30531 ft | 427 kts | 211° |
| 2026-04-30 20:40 | 50.33701 | -1.98045 | 31543 ft | 432 kts | 211° |
| 2026-04-30 20:40 | 50.28508 | -2.02757 | 31993 ft | 434 kts | 204° |
| 2026-04-30 20:40 | 50.22903 | -2.06178 | 32481 ft | 434 kts | 195° |
| 2026-04-30 20:41 | 50.11157 | -2.08996 | 33581 ft | 430 kts | 184° |
| 2026-04-30 20:41 | 50.05172 | -2.09743 | 34118 ft | 430 kts | 184° |
| 2026-04-30 20:41 | 49.99291 | -2.10796 | 34592 ft | 430 kts | 188° |
| 2026-04-30 20:41 | 49.93416 | -2.12862 | 34980 ft | 433 kts | 195° |
| 2026-04-30 20:42 | 49.87846 | -2.15482 | 35369 ft | 434 kts | 196° |
| 2026-04-30 20:42 | 49.82120 | -2.18164 | 35734 ft | 435 kts | 196° |
| 2026-04-30 20:42 | 49.70517 | -2.23561 | 36115 ft | 438 kts | 195° |
| 2026-04-30 20:43 | 46.47312 | -3.63789 | 36152 ft | 438 kts | 194° |
| 2026-04-30 20:43 | 46.35426 | -3.67595 | 36094 ft | 438 kts | 183° |
| 2026-04-30 20:44 | 46.17335 | -3.69267 | 36151 ft | 439 kts | 185° |